createdAt,value
2022-07-30T00:01:21.572Z,21.90
2022-07-30T00:06:23.418Z,21.80
2022-07-30T00:11:27.916Z,21.90
2022-07-30T00:16:30.007Z,22.00
2022-07-30T00:21:35.724Z,22.00
2022-07-30T00:26:40.647Z,22.00
2022-07-30T00:31:42.469Z,22.20
2022-07-30T00:36:44.225Z,22.00
2022-07-30T00:42:04.506Z,21.80
2022-07-30T00:47:06.303Z,21.70
2022-07-30T00:52:08.019Z,21.70
2022-07-30T00:57:09.737Z,21.70
2022-07-30T01:02:11.460Z,21.90
2022-07-30T01:07:13.270Z,21.90
2022-07-30T01:12:19.902Z,22.10
2022-07-30T01:17:21.632Z,22.10
2022-07-30T01:22:27.907Z,21.60
2022-07-30T01:27:47.524Z,21.50
2022-07-30T01:32:51.253Z,21.50
2022-07-30T01:37:55.343Z,21.50
2022-07-30T01:42:58.943Z,21.30
2022-07-30T01:48:03.841Z,21.50
2022-07-30T01:53:06.979Z,21.70
2022-07-30T01:58:10.602Z,21.50
2022-07-30T02:03:12.713Z,21.20
2022-07-30T02:08:27.745Z,21.40
2022-07-30T02:13:30.268Z,22.00
2022-07-30T02:18:35.608Z,21.80
2022-07-30T02:23:44.248Z,21.60
2022-07-30T02:28:49.844Z,21.60
2022-07-30T02:33:55.791Z,21.50
2022-07-30T02:38:59.225Z,21.40
2022-07-30T02:44:02.582Z,21.60
2022-07-30T02:49:06.854Z,21.20
2022-07-30T02:54:09.921Z,21.20
2022-07-30T02:59:15.317Z,21.30
2022-07-30T03:04:21.009Z,21.10
2022-07-30T03:09:23.125Z,21.10
2022-07-30T03:14:25.093Z,21.00
2022-07-30T03:19:30.926Z,20.90
2022-07-30T03:24:34.367Z,20.90
2022-07-30T03:29:38.549Z,20.80
2022-07-30T03:34:41.710Z,20.70
2022-07-30T03:39:43.806Z,20.50
2022-07-30T03:44:45.775Z,20.60
2022-07-30T03:49:47.549Z,20.30
2022-07-30T03:54:49.901Z,20.40
2022-07-30T03:59:51.888Z,20.50
2022-07-30T04:04:53.796Z,20.40
2022-07-30T04:09:55.546Z,20.40
2022-07-30T04:14:57.339Z,20.80
2022-07-30T04:20:08.863Z,20.80
2022-07-30T04:25:11.682Z,20.70
2022-07-30T04:30:27.551Z,20.90
2022-07-30T04:35:51.020Z,21.20
2022-07-30T04:40:53.895Z,20.90
2022-07-30T04:45:55.631Z,20.90
2022-07-30T04:51:00.683Z,21.10
2022-07-30T04:56:04.147Z,21.10
2022-07-30T05:01:06.029Z,21.50
2022-07-30T05:06:08.512Z,21.60
2022-07-30T05:11:13.797Z,21.50
2022-07-30T05:16:16.003Z,21.40
2022-07-30T05:21:17.876Z,21.60
2022-07-30T05:26:20.553Z,21.80
2022-07-30T05:31:22.438Z,22.10
2022-07-30T05:36:24.282Z,22.10
2022-07-30T05:41:32.260Z,22.10
2022-07-30T05:46:34.970Z,22.30
2022-07-30T05:51:36.767Z,22.30
2022-07-30T05:56:38.892Z,22.50
2022-07-30T06:01:40.682Z,22.80
2022-07-30T06:06:42.467Z,22.90
2022-07-30T06:11:44.163Z,23.30
2022-07-30T06:16:45.886Z,23.00
2022-07-30T06:22:06.072Z,22.80
2022-07-30T06:27:08.864Z,23.00
2022-07-30T06:32:10.593Z,23.10
2022-07-30T06:37:12.521Z,22.80
2022-07-30T06:42:14.415Z,22.50
2022-07-30T06:47:20.572Z,22.60
2022-07-30T06:52:22.556Z,22.80
2022-07-30T06:57:24.369Z,22.50
2022-07-30T07:02:26.092Z,23.00
2022-07-30T07:07:41.169Z,23.30
2022-07-30T07:12:43.388Z,23.70
2022-07-30T07:17:45.151Z,23.50
2022-07-30T07:22:46.869Z,23.80
2022-07-30T07:28:12.626Z,23.80
2022-07-30T07:33:11.181Z,23.60
2022-07-30T07:38:12.960Z,23.70
2022-07-30T07:43:15.300Z,23.80
2022-07-30T07:48:18.682Z,23.80
2022-07-30T07:53:20.563Z,24.40
2022-07-30T07:58:26.307Z,23.90
2022-07-30T08:03:28.465Z,24.50
2022-07-30T08:08:30.231Z,24.70
2022-07-30T08:13:47.990Z,24.40
2022-07-30T08:18:53.753Z,25.10
2022-07-30T08:23:55.475Z,25.10
2022-07-30T08:28:57.207Z,25.50
2022-07-30T08:33:58.949Z,26.00
2022-07-30T08:39:00.816Z,25.80
2022-07-30T08:44:03.755Z,25.90
2022-07-30T08:49:10.982Z,26.00
2022-07-30T08:54:13.487Z,26.60
2022-07-30T08:59:16.525Z,26.70
2022-07-30T09:04:18.651Z,27.30
2022-07-30T09:09:20.353Z,27.10
2022-07-30T09:14:22.174Z,27.50
2022-07-30T09:19:32.576Z,27.30
2022-07-30T09:24:42.431Z,27.70
2022-07-30T09:29:44.328Z,27.70
2022-07-30T09:34:47.358Z,28.10
2022-07-30T09:39:56.490Z,27.70
2022-07-30T09:45:12.591Z,28.00
2022-07-30T09:50:18.084Z,28.50
2022-07-30T09:55:34.139Z,28.30
2022-07-30T10:00:37.227Z,28.70
2022-07-30T10:05:39.424Z,28.80
2022-07-30T10:10:49.190Z,29.70
2022-07-30T10:15:52.857Z,29.30
2022-07-30T10:20:54.939Z,29.00
2022-07-30T10:25:57.153Z,29.10
2022-07-30T10:30:59.895Z,29.20
2022-07-30T10:36:02.713Z,29.70
2022-07-30T10:41:15.221Z,29.80
2022-07-30T10:47:10.353Z,29.90
2022-07-30T10:52:12.464Z,30.20
2022-07-30T10:57:31.656Z,30.20
2022-07-30T11:02:34.331Z,30.00
2022-07-30T11:07:36.344Z,30.20
2022-07-30T11:12:44.805Z,29.50
2022-07-30T11:18:12.438Z,30.00
2022-07-30T11:23:20.860Z,30.50
2022-07-30T11:28:49.519Z,30.80
2022-07-30T11:33:52.644Z,31.40
2022-07-30T11:39:05.231Z,31.40
2022-07-30T11:44:29.344Z,31.20
2022-07-30T11:49:36.965Z,31.50
2022-07-30T11:54:55.113Z,32.00
2022-07-30T11:59:57.124Z,31.60
2022-07-30T12:04:58.882Z,31.50
2022-07-30T12:10:26.826Z,31.60
2022-07-30T12:15:34.609Z,32.20
2022-07-30T12:20:36.367Z,32.20
2022-07-30T12:25:47.866Z,32.50
2022-07-30T12:30:54.085Z,32.20
2022-07-30T12:35:58.301Z,32.10
2022-07-30T12:41:05.041Z,32.60
2022-07-30T12:46:06.776Z,32.30
2022-07-30T12:51:09.906Z,33.30
2022-07-30T12:56:17.077Z,32.40
2022-07-30T13:01:18.979Z,32.90
2022-07-30T13:06:22.185Z,32.30
2022-07-30T13:11:26.008Z,33.10
2022-07-30T13:16:36.944Z,34.00
2022-07-30T13:21:40.285Z,33.00
2022-07-30T13:26:51.181Z,32.60
2022-07-30T13:31:52.957Z,33.10
2022-07-30T13:36:54.691Z,32.90
2022-07-30T13:41:56.407Z,32.80
2022-07-30T13:47:01.723Z,33.20
2022-07-30T13:52:04.044Z,33.40
2022-07-30T13:57:05.989Z,33.70
2022-07-30T14:02:08.570Z,33.00
2022-07-30T14:07:10.727Z,33.90
2022-07-30T14:12:12.464Z,33.40
2022-07-30T14:17:14.165Z,33.90
2022-07-30T14:22:15.941Z,33.70
2022-07-30T14:27:17.717Z,33.80
2022-07-30T14:32:19.507Z,34.20
2022-07-30T14:37:21.272Z,33.60
2022-07-30T14:42:25.928Z,33.80
2022-07-30T14:47:27.647Z,33.90
2022-07-30T14:52:29.381Z,33.70
2022-07-30T14:57:31.102Z,33.60
2022-07-30T15:02:32.818Z,33.50
2022-07-30T15:07:35.173Z,33.90
2022-07-30T15:12:37.173Z,33.70
2022-07-30T15:17:39.910Z,33.30
2022-07-30T15:22:41.844Z,33.20
2022-07-30T15:27:43.559Z,33.10
2022-07-30T15:32:45.690Z,33.10
2022-07-30T15:37:47.418Z,33.10
2022-07-30T15:42:49.173Z,33.10
2022-07-30T15:47:51.256Z,33.10
2022-07-30T15:52:53.004Z,32.70
2022-07-30T15:57:54.795Z,32.60
2022-07-30T16:02:56.601Z,32.60
2022-07-30T16:07:58.324Z,32.30
2022-07-30T16:13:00.074Z,32.10
2022-07-30T16:18:02.223Z,32.00
2022-07-30T16:23:03.981Z,31.90
2022-07-30T16:28:05.756Z,32.00
2022-07-30T16:33:08.633Z,31.60
2022-07-30T16:38:14.103Z,31.50
2022-07-30T16:43:19.966Z,31.10
2022-07-30T16:48:21.997Z,31.30
2022-07-30T16:53:23.683Z,31.10
2022-07-30T16:58:30.831Z,31.00
2022-07-30T17:03:32.965Z,30.80
2022-07-30T17:08:34.691Z,30.90
2022-07-30T17:13:36.640Z,30.90
2022-07-30T17:18:38.354Z,30.70
2022-07-30T17:23:40.183Z,30.70
2022-07-30T17:28:41.882Z,30.60
2022-07-30T17:33:43.581Z,30.60
2022-07-30T17:38:45.284Z,30.60
2022-07-30T17:43:47.024Z,30.50
2022-07-30T17:48:49.056Z,30.40
2022-07-30T17:53:50.842Z,30.40
2022-07-30T17:58:52.569Z,30.30
2022-07-30T18:03:54.295Z,30.20
2022-07-30T18:08:56.035Z,30.20
2022-07-30T18:13:57.778Z,30.00
2022-07-30T18:18:59.627Z,29.90
2022-07-30T18:24:01.494Z,29.80
2022-07-30T18:29:04.675Z,29.70
2022-07-30T18:34:06.421Z,29.60
2022-07-30T18:39:08.168Z,29.40
2022-07-30T18:44:09.968Z,29.40
2022-07-30T18:49:35.162Z,29.20
2022-07-30T18:54:33.582Z,29.00
2022-07-30T18:59:35.513Z,28.90
2022-07-30T19:04:37.276Z,28.70
2022-07-30T19:09:39.018Z,28.70
2022-07-30T19:14:40.840Z,28.50
2022-07-30T19:19:42.922Z,28.40
2022-07-30T19:24:44.688Z,28.30
2022-07-30T19:29:46.423Z,28.30
2022-07-30T19:34:48.143Z,28.30
2022-07-30T19:40:05.274Z,28.10
2022-07-30T19:45:11.554Z,28.00
2022-07-30T19:50:13.691Z,27.80
2022-07-30T19:55:18.255Z,27.70
2022-07-30T20:00:35.760Z,27.60
2022-07-30T20:05:58.456Z,27.60
2022-07-30T20:10:59.447Z,27.50
2022-07-30T20:16:01.447Z,27.30
2022-07-30T20:21:03.254Z,27.40
2022-07-30T20:26:05.729Z,27.40
2022-07-30T20:31:15.310Z,26.90
2022-07-30T20:36:18.529Z,26.80
2022-07-30T20:41:20.243Z,26.80
2022-07-30T20:46:23.247Z,26.90
2022-07-30T20:51:33.556Z,27.00
2022-07-30T20:56:35.586Z,26.90
2022-07-30T21:01:37.354Z,26.80
2022-07-30T21:06:39.209Z,26.60
2022-07-30T21:11:47.720Z,26.40
2022-07-30T21:16:55.979Z,26.40
2022-07-30T21:21:58.045Z,26.50
2022-07-30T21:27:48.704Z,26.70
2022-07-30T21:32:22.341Z,26.60
2022-07-30T21:37:36.493Z,26.40
2022-07-30T21:42:48.341Z,26.70
2022-07-30T21:47:50.757Z,26.30
2022-07-30T21:52:53.382Z,26.70
2022-07-30T21:57:58.019Z,26.50
2022-07-30T22:02:59.740Z,26.10
2022-07-30T22:08:01.741Z,25.90
2022-07-30T22:13:03.588Z,25.70
2022-07-30T22:18:06.237Z,26.00
2022-07-30T22:23:08.329Z,25.70
2022-07-30T22:28:10.145Z,25.70
2022-07-30T22:33:19.297Z,25.60
2022-07-30T22:38:21.597Z,25.70
2022-07-30T22:43:24.029Z,25.70
2022-07-30T22:48:35.056Z,25.70
2022-07-30T22:58:58.923Z,25.50
2022-07-30T23:04:01.361Z,26.00
2022-07-30T23:09:03.464Z,25.80
2022-07-30T23:12:33.669Z,25.70
2022-07-30T23:14:09.566Z,26.10
2022-07-30T23:19:16.188Z,25.70
2022-07-30T23:24:24.037Z,25.60
2022-07-30T23:29:25.783Z,25.50
2022-07-30T23:34:27.516Z,25.30
2022-07-30T23:39:29.215Z,25.00
2022-07-30T23:44:34.332Z,25.20
2022-07-30T23:49:38.768Z,25.20
2022-07-30T23:54:40.508Z,24.90
2022-07-30T23:59:42.231Z,24.60
